createdAt,value
2023-04-07T00:00:28.457Z,100.00
2023-04-07T00:02:54.904Z,100.00
2023-04-07T00:05:21.538Z,100.00
2023-04-07T00:07:55.861Z,100.00
2023-04-07T00:10:22.804Z,100.00
2023-04-07T00:12:49.156Z,100.00
2023-04-07T00:15:15.841Z,100.00
2023-04-07T00:17:42.189Z,100.00
2023-04-07T00:20:09.111Z,100.00
2023-04-07T00:22:35.629Z,100.00
2023-04-07T00:25:02.060Z,100.00
2023-04-07T00:27:28.542Z,100.00
2023-04-07T00:29:55.447Z,100.00
2023-04-07T00:32:22.802Z,100.00
2023-04-07T00:34:49.341Z,100.00
2023-04-07T00:37:16.020Z,100.00
2023-04-07T00:39:42.503Z,100.00
2023-04-07T00:42:08.901Z,100.00
2023-04-07T00:44:35.309Z,100.00
2023-04-07T00:47:01.910Z,100.00
2023-04-07T00:49:28.540Z,100.00
2023-04-07T00:51:56.127Z,100.00
2023-04-07T00:54:23.918Z,100.00
2023-04-07T00:56:51.276Z,100.00
2023-04-07T00:59:18.085Z,100.00
2023-04-07T01:01:57.959Z,100.00
2023-04-07T01:04:35.321Z,100.00
2023-04-07T01:07:06.692Z,100.00
2023-04-07T01:09:41.153Z,100.00
2023-04-07T01:12:28.864Z,100.00
2023-04-07T01:15:00.209Z,100.00
2023-04-07T01:17:28.431Z,100.00
2023-04-07T01:20:21.254Z,100.00
2023-04-07T01:22:54.305Z,100.00
2023-04-07T01:26:05.722Z,100.00
2023-04-07T01:28:57.584Z,100.00
2023-04-07T01:31:26.589Z,100.00
2023-04-07T01:33:55.917Z,100.00
2023-04-07T01:36:23.427Z,100.00
2023-04-07T01:38:51.357Z,100.00
2023-04-07T01:41:19.129Z,100.00
2023-04-07T01:43:47.568Z,100.00
2023-04-07T01:46:15.247Z,100.00
2023-04-07T01:48:42.519Z,100.00
2023-04-07T01:51:11.927Z,100.00
2023-04-07T01:53:39.228Z,100.00
2023-04-07T01:56:06.190Z,100.00
2023-04-07T01:58:32.781Z,100.00
2023-04-07T02:00:59.752Z,100.00
2023-04-07T02:03:49.475Z,100.00
2023-04-07T02:06:21.310Z,100.00
2023-04-07T02:08:54.393Z,100.00
2023-04-07T02:11:22.135Z,100.00
2023-04-07T02:13:49.964Z,100.00
2023-04-07T02:16:17.197Z,100.00
2023-04-07T02:18:46.680Z,100.00
2023-04-07T02:21:16.978Z,100.00
2023-04-07T02:23:43.477Z,100.00
2023-04-07T02:26:10.399Z,100.00
2023-04-07T02:28:36.782Z,100.00
2023-04-07T02:31:03.223Z,100.00
2023-04-07T02:33:29.611Z,100.00
2023-04-07T02:35:56.280Z,100.00
2023-04-07T02:38:22.716Z,100.00
2023-04-07T02:40:49.260Z,100.00
2023-04-07T02:43:17.549Z,100.00
2023-04-07T02:45:43.942Z,100.00
2023-04-07T02:48:10.534Z,100.00
2023-04-07T02:50:37.013Z,100.00
2023-04-07T02:53:03.453Z,100.00
2023-04-07T02:55:30.036Z,100.00
2023-04-07T02:57:56.390Z,100.00
2023-04-07T03:00:22.750Z,100.00
2023-04-07T03:02:49.570Z,100.00
2023-04-07T03:05:16.189Z,100.00
2023-04-07T03:07:42.670Z,100.00
2023-04-07T03:10:09.433Z,100.00
2023-04-07T03:12:35.796Z,100.00
2023-04-07T03:15:02.311Z,100.00
2023-04-07T03:17:28.802Z,100.00
2023-04-07T03:19:55.293Z,100.00
2023-04-07T03:22:21.734Z,100.00
2023-04-07T03:24:48.187Z,100.00
2023-04-07T03:27:14.703Z,100.00
2023-04-07T03:29:41.394Z,100.00
2023-04-07T03:32:07.868Z,100.00
2023-04-07T03:34:34.508Z,100.00
2023-04-07T03:37:00.937Z,100.00
2023-04-07T03:39:27.441Z,100.00
2023-04-07T03:41:53.783Z,100.00
2023-04-07T03:44:20.175Z,100.00
2023-04-07T03:46:48.206Z,100.00
2023-04-07T03:49:14.846Z,100.00
2023-04-07T03:51:41.620Z,100.00
2023-04-07T03:54:08.017Z,100.00
2023-04-07T03:56:34.409Z,100.00
2023-04-07T03:59:00.905Z,100.00
2023-04-07T04:01:27.364Z,99.78
2023-04-07T04:03:54.302Z,99.78
2023-04-07T04:06:21.121Z,99.71
2023-04-07T04:08:47.620Z,99.80
2023-04-07T04:11:14.004Z,99.68
2023-04-07T04:13:40.472Z,99.44
2023-04-07T04:16:07.498Z,99.48
2023-04-07T04:18:33.888Z,99.34
2023-04-07T04:21:00.300Z,98.97
2023-04-07T04:23:26.781Z,99.38
2023-04-07T04:25:53.131Z,99.30
2023-04-07T04:28:19.571Z,99.04
2023-04-07T04:30:46.092Z,99.33
2023-04-07T04:33:12.490Z,99.31
2023-04-07T04:35:39.587Z,99.34
2023-04-07T04:38:05.995Z,99.28
2023-04-07T04:40:32.338Z,99.42
2023-04-07T04:42:58.692Z,99.28
2023-04-07T04:45:25.624Z,99.19
2023-04-07T04:47:52.058Z,99.22
2023-04-07T04:50:18.677Z,99.40
2023-04-07T04:52:45.239Z,99.39
2023-04-07T04:55:13.423Z,99.32
2023-04-07T04:57:41.152Z,99.21
2023-04-07T05:00:08.471Z,99.29
2023-04-07T05:02:35.130Z,99.10
2023-04-07T05:05:01.897Z,99.14
2023-04-07T05:07:28.360Z,99.15
2023-04-07T05:09:54.697Z,99.29
2023-04-07T05:12:21.922Z,99.14
2023-04-07T05:14:48.306Z,98.96
2023-04-07T05:17:15.024Z,98.88
2023-04-07T05:19:41.458Z,98.58
2023-04-07T05:22:07.818Z,98.77
2023-04-07T05:24:34.260Z,98.48
2023-04-07T05:27:01.918Z,98.44
2023-04-07T05:29:28.339Z,98.42
2023-04-07T05:31:54.811Z,98.21
2023-04-07T05:34:21.256Z,98.33
2023-04-07T05:36:47.648Z,98.18
2023-04-07T05:39:14.046Z,98.10
2023-04-07T05:41:40.450Z,98.12
2023-04-07T05:44:06.967Z,98.16
2023-04-07T05:46:33.312Z,98.21
2023-04-07T05:49:07.182Z,98.04
2023-04-07T05:51:46.741Z,98.41
2023-04-07T05:54:13.979Z,98.33
2023-04-07T05:56:40.395Z,98.72
2023-04-07T05:59:06.750Z,98.71
2023-04-07T06:01:33.253Z,98.56
2023-04-07T06:03:59.738Z,98.64
2023-04-07T06:06:26.990Z,98.90
2023-04-07T06:08:53.343Z,98.75
2023-04-07T06:11:19.936Z,98.97
2023-04-07T06:13:46.733Z,99.02
2023-04-07T06:16:13.519Z,98.83
2023-04-07T06:18:40.957Z,98.99
2023-04-07T06:21:07.472Z,99.00
2023-04-07T06:23:33.864Z,99.19
2023-04-07T06:26:00.334Z,99.17
2023-04-07T06:28:26.738Z,99.34
2023-04-07T06:30:53.303Z,99.15
2023-04-07T06:33:25.555Z,99.33
2023-04-07T06:35:52.621Z,99.17
2023-04-07T06:38:19.153Z,99.21
2023-04-07T06:40:45.546Z,98.97
2023-04-07T06:43:11.995Z,99.25
2023-04-07T06:45:38.529Z,98.96
2023-04-07T06:48:05.520Z,98.96
2023-04-07T06:50:31.982Z,99.02
2023-04-07T06:52:58.532Z,98.89
2023-04-07T06:55:25.124Z,98.80
2023-04-07T06:57:52.248Z,98.80
2023-04-07T07:00:19.041Z,98.55
2023-04-07T07:02:45.602Z,98.78
2023-04-07T07:05:12.111Z,98.86
2023-04-07T07:07:38.580Z,98.91
2023-04-07T07:10:06.100Z,98.71
2023-04-07T07:12:33.382Z,98.72
2023-04-07T07:14:59.807Z,98.90
2023-04-07T07:17:26.520Z,98.87
2023-04-07T07:19:52.962Z,98.90
2023-04-07T07:22:19.341Z,98.67
2023-04-07T07:24:45.747Z,98.70
2023-04-07T07:27:12.155Z,98.45
2023-04-07T07:29:38.490Z,98.36
2023-04-07T07:32:04.931Z,98.31
2023-04-07T07:34:31.762Z,97.81
2023-04-07T07:36:58.122Z,97.47
2023-04-07T07:39:24.845Z,97.90
2023-04-07T07:41:51.553Z,97.47
2023-04-07T07:44:20.205Z,97.66
2023-04-07T07:46:46.673Z,97.52
2023-04-07T07:49:13.085Z,97.30
2023-04-07T07:51:39.519Z,97.04
2023-04-07T07:54:06.110Z,97.05
2023-04-07T07:56:32.491Z,97.16
2023-04-07T07:58:59.142Z,96.91
2023-04-07T08:01:25.679Z,96.87
2023-04-07T08:03:52.706Z,96.70
2023-04-07T08:06:19.764Z,96.68
2023-04-07T08:08:46.151Z,96.15
2023-04-07T08:11:12.957Z,96.02
2023-04-07T08:13:39.887Z,95.74
2023-04-07T08:16:07.047Z,95.92
2023-04-07T08:18:33.581Z,95.69
2023-04-07T08:21:00.004Z,95.33
2023-04-07T08:23:27.003Z,94.54
2023-04-07T08:25:53.395Z,94.64
2023-04-07T08:28:21.062Z,93.96
2023-04-07T08:30:47.385Z,93.22
2023-04-07T08:33:13.848Z,93.05
2023-04-07T08:35:40.253Z,92.92
2023-04-07T08:38:08.497Z,92.35
2023-04-07T08:40:35.544Z,91.79
2023-04-07T08:43:08.587Z,91.94
2023-04-07T08:45:39.354Z,92.02
2023-04-07T08:48:23.105Z,91.71
2023-04-07T08:50:52.678Z,91.56
2023-04-07T08:53:24.328Z,91.33
2023-04-07T08:55:51.101Z,90.73
2023-04-07T08:58:19.104Z,89.57
2023-04-07T09:00:46.840Z,89.56
2023-04-07T09:03:13.881Z,89.38
2023-04-07T09:05:40.812Z,88.27
2023-04-07T09:08:07.207Z,88.79
2023-04-07T09:10:33.642Z,88.48
2023-04-07T09:13:00.303Z,88.35
2023-04-07T09:15:31.656Z,87.64
2023-04-07T09:17:59.356Z,87.65
2023-04-07T09:20:25.764Z,87.95
2023-04-07T09:22:52.279Z,87.54
2023-04-07T09:25:22.615Z,87.30
2023-04-07T09:27:59.440Z,86.74
2023-04-07T09:30:27.201Z,86.54
2023-04-07T09:32:53.828Z,85.98
2023-04-07T09:35:23.069Z,86.01
2023-04-07T09:38:09.279Z,85.28
2023-04-07T09:40:39.321Z,85.83
2023-04-07T09:43:05.950Z,85.40
2023-04-07T09:45:35.875Z,85.60
2023-04-07T09:48:08.642Z,85.44
2023-04-07T09:50:41.044Z,85.33
2023-04-07T09:53:08.036Z,85.56
2023-04-07T09:55:36.318Z,85.17
2023-04-07T09:58:04.761Z,84.94
2023-04-07T10:00:31.243Z,84.57
2023-04-07T10:02:58.393Z,84.22
2023-04-07T10:05:25.355Z,84.67
2023-04-07T10:07:52.462Z,84.88
2023-04-07T10:10:18.938Z,84.28
2023-04-07T10:12:45.920Z,84.81
2023-04-07T10:15:16.260Z,84.73
2023-04-07T10:17:50.260Z,84.51
2023-04-07T10:20:22.890Z,83.97
2023-04-07T10:22:52.112Z,84.19
2023-04-07T10:25:21.298Z,84.39
2023-04-07T10:28:00.594Z,84.06
2023-04-07T10:30:31.080Z,83.80
2023-04-07T10:32:58.807Z,83.95
2023-04-07T10:35:26.043Z,84.03
2023-04-07T10:38:13.734Z,83.59
2023-04-07T10:40:41.432Z,83.89
2023-04-07T10:43:14.947Z,84.16
2023-04-07T10:45:48.218Z,83.59
2023-04-07T10:48:18.778Z,83.21
2023-04-07T10:51:05.542Z,82.89
2023-04-07T10:53:32.157Z,83.06
2023-04-07T10:55:59.287Z,82.81
2023-04-07T10:58:29.007Z,82.52
2023-04-07T11:01:04.814Z,82.98
2023-04-07T11:03:34.012Z,82.66
2023-04-07T11:06:11.762Z,82.53
2023-04-07T11:08:46.149Z,82.66
2023-04-07T11:11:39.748Z,82.87
2023-04-07T11:14:06.494Z,82.78
2023-04-07T11:16:43.766Z,82.41
2023-04-07T11:19:11.312Z,82.76
2023-04-07T11:21:37.840Z,82.77
2023-04-07T11:24:04.403Z,82.75
2023-04-07T11:26:38.025Z,82.62
2023-04-07T11:29:04.494Z,82.54
2023-04-07T11:31:32.260Z,81.97
2023-04-07T11:34:04.795Z,82.22
2023-04-07T11:36:37.905Z,81.86
2023-04-07T11:39:04.418Z,82.15
2023-04-07T11:41:32.884Z,81.89
2023-04-07T11:44:11.956Z,81.62
2023-04-07T11:47:02.189Z,81.93
2023-04-07T11:49:29.484Z,81.53
2023-04-07T11:52:00.843Z,81.78
2023-04-07T11:54:27.408Z,82.01
2023-04-07T11:56:55.880Z,81.73
2023-04-07T11:59:24.465Z,81.76
2023-04-07T12:01:54.666Z,81.54
2023-04-07T12:04:23.634Z,81.27
2023-04-07T12:06:50.244Z,81.20
2023-04-07T12:09:35.945Z,80.77
2023-04-07T12:12:07.032Z,81.42
2023-04-07T12:14:34.150Z,81.31
2023-04-07T12:17:03.266Z,81.61
2023-04-07T12:19:32.660Z,81.38
2023-04-07T12:21:59.028Z,81.02
2023-04-07T12:24:25.446Z,81.10
2023-04-07T12:26:51.863Z,80.71
2023-04-07T12:29:20.110Z,80.71
2023-04-07T12:31:48.644Z,80.41
2023-04-07T12:34:16.902Z,80.26
2023-04-07T12:36:43.726Z,80.37
2023-04-07T12:39:10.309Z,80.10
2023-04-07T12:41:38.498Z,79.63
2023-04-07T12:44:04.988Z,79.55
2023-04-07T12:46:31.735Z,79.39
2023-04-07T12:48:58.292Z,79.82
2023-04-07T12:51:26.134Z,79.99
2023-04-07T12:53:54.176Z,79.42
2023-04-07T12:56:22.436Z,79.43
2023-04-07T12:58:49.046Z,79.20
2023-04-07T13:01:16.746Z,79.24
2023-04-07T13:03:43.500Z,78.96
2023-04-07T13:06:10.841Z,79.50
2023-04-07T13:08:37.308Z,78.98
2023-04-07T13:11:03.883Z,78.93
2023-04-07T13:13:31.926Z,79.05
2023-04-07T13:15:58.425Z,78.83
2023-04-07T13:18:25.283Z,78.96
2023-04-07T13:21:06.176Z,79.16
2023-04-07T13:23:43.234Z,79.35
2023-04-07T13:26:10.727Z,79.19
2023-04-07T13:28:37.357Z,79.43
2023-04-07T13:31:03.898Z,79.70
2023-04-07T13:33:30.397Z,79.36
2023-04-07T13:35:56.903Z,79.12
2023-04-07T13:38:23.277Z,79.59
2023-04-07T13:40:49.814Z,79.60
2023-04-07T13:43:18.518Z,79.33
2023-04-07T13:45:45.104Z,79.29
2023-04-07T13:48:11.705Z,79.61
2023-04-07T13:50:38.517Z,79.50
2023-04-07T13:53:04.978Z,79.83
2023-04-07T13:55:31.312Z,79.88
2023-04-07T13:57:57.794Z,80.13
2023-04-07T14:00:24.319Z,80.13
2023-04-07T14:02:50.797Z,80.19
2023-04-07T14:05:17.338Z,80.55
2023-04-07T14:07:43.895Z,80.58
2023-04-07T14:10:10.778Z,80.31
2023-04-07T14:12:37.256Z,80.61
2023-04-07T14:15:04.203Z,80.71
2023-04-07T14:17:30.884Z,80.48
2023-04-07T14:19:57.295Z,79.93
2023-04-07T14:22:23.703Z,79.82
2023-04-07T14:24:50.062Z,79.94
2023-04-07T14:27:20.772Z,79.53
2023-04-07T14:29:48.193Z,79.94
2023-04-07T14:32:16.211Z,80.02
2023-04-07T14:34:42.690Z,79.54
2023-04-07T14:37:09.074Z,79.55
2023-04-07T14:39:35.624Z,79.35
2023-04-07T14:42:02.035Z,79.52
2023-04-07T14:44:29.067Z,79.70
2023-04-07T14:46:55.487Z,79.57
2023-04-07T14:49:22.232Z,79.76
2023-04-07T14:51:48.654Z,80.25
2023-04-07T14:54:15.028Z,80.10
2023-04-07T14:56:41.694Z,80.49
2023-04-07T14:59:08.125Z,80.73
2023-04-07T15:01:34.609Z,81.49
2023-04-07T15:04:01.159Z,81.72
2023-04-07T15:06:27.716Z,81.51
2023-04-07T15:08:54.188Z,81.79
2023-04-07T15:11:21.601Z,81.46
2023-04-07T15:13:48.516Z,81.57
2023-04-07T15:16:15.767Z,81.86
2023-04-07T15:18:44.852Z,81.91
2023-04-07T15:21:12.412Z,81.96
2023-04-07T15:23:39.115Z,82.59
2023-04-07T15:26:06.255Z,82.66
2023-04-07T15:28:32.679Z,83.28
2023-04-07T15:30:59.861Z,83.44
2023-04-07T15:33:26.348Z,83.52
2023-04-07T15:35:52.776Z,83.94
2023-04-07T15:38:19.326Z,84.42
2023-04-07T15:40:46.019Z,84.71
2023-04-07T15:43:12.518Z,85.01
2023-04-07T15:45:43.382Z,85.49
2023-04-07T15:48:10.936Z,85.48
2023-04-07T15:50:37.869Z,85.96
2023-04-07T15:53:04.772Z,85.90
2023-04-07T15:55:35.401Z,86.22
2023-04-07T15:58:03.370Z,86.79
2023-04-07T16:00:33.410Z,86.77
2023-04-07T16:03:02.003Z,87.32
2023-04-07T16:05:29.139Z,87.68
2023-04-07T16:07:55.743Z,87.62
2023-04-07T16:10:22.189Z,88.27
2023-04-07T16:12:48.715Z,88.34
2023-04-07T16:15:20.470Z,88.69
2023-04-07T16:17:52.881Z,89.01
2023-04-07T16:20:19.321Z,89.51
2023-04-07T16:22:48.113Z,89.81
2023-04-07T16:25:16.008Z,89.72
2023-04-07T16:27:43.822Z,90.35
2023-04-07T16:30:12.016Z,90.26
2023-04-07T16:32:38.418Z,90.60
2023-04-07T16:35:05.393Z,90.58
2023-04-07T16:37:31.778Z,90.15
2023-04-07T16:39:58.107Z,90.59
2023-04-07T16:42:31.112Z,90.82
2023-04-07T16:44:57.749Z,90.85
2023-04-07T16:47:26.114Z,91.05
2023-04-07T16:49:52.654Z,91.36
2023-04-07T16:52:20.525Z,91.74
2023-04-07T16:54:47.245Z,91.58
2023-04-07T16:57:13.702Z,92.00
2023-04-07T16:59:40.400Z,91.97
2023-04-07T17:02:12.851Z,91.92
2023-04-07T17:04:40.961Z,92.16
2023-04-07T17:07:07.947Z,92.03
2023-04-07T17:09:34.518Z,92.13
2023-04-07T17:12:01.821Z,92.42
2023-04-07T17:14:28.967Z,92.22
2023-04-07T17:16:55.795Z,91.88
2023-04-07T17:19:22.250Z,92.07
2023-04-07T17:21:48.575Z,92.21
2023-04-07T17:24:16.748Z,91.91
2023-04-07T17:26:44.269Z,92.44
2023-04-07T17:29:10.696Z,92.32
2023-04-07T17:31:37.086Z,91.85
2023-04-07T17:34:03.532Z,92.36
2023-04-07T17:36:33.772Z,92.21
2023-04-07T17:39:01.527Z,92.22
2023-04-07T17:41:28.393Z,92.05
2023-04-07T17:43:54.926Z,92.29
2023-04-07T17:46:22.468Z,92.03
2023-04-07T17:48:50.698Z,92.77
2023-04-07T17:51:17.666Z,92.97
2023-04-07T17:53:44.172Z,93.12
2023-04-07T17:56:10.656Z,93.28
2023-04-07T17:58:37.070Z,93.45
2023-04-07T18:01:04.230Z,93.54
2023-04-07T18:03:30.784Z,93.67
2023-04-07T18:05:57.326Z,93.65
2023-04-07T18:08:24.956Z,93.65
2023-04-07T18:10:52.211Z,93.58
2023-04-07T18:13:18.660Z,93.69
2023-04-07T18:15:45.189Z,93.98
2023-04-07T18:18:11.651Z,93.67
2023-04-07T18:20:38.057Z,93.77
2023-04-07T18:23:05.460Z,93.73
2023-04-07T18:25:31.957Z,94.01
2023-04-07T18:27:58.866Z,93.83
2023-04-07T18:30:25.420Z,93.86
2023-04-07T18:32:51.880Z,94.10
2023-04-07T18:35:18.319Z,94.15
2023-04-07T18:37:44.718Z,94.39
2023-04-07T18:40:11.647Z,93.90
2023-04-07T18:42:38.189Z,94.48
2023-04-07T18:45:04.949Z,94.38
2023-04-07T18:47:31.381Z,94.36
2023-04-07T18:49:58.187Z,94.59
2023-04-07T18:52:26.372Z,94.60
2023-04-07T18:54:52.984Z,94.72
2023-04-07T18:57:19.455Z,94.50
2023-04-07T18:59:45.853Z,94.30
2023-04-07T19:02:12.583Z,94.43
2023-04-07T19:04:39.621Z,94.42
2023-04-07T19:07:06.365Z,94.06
2023-04-07T19:09:33.286Z,94.21
2023-04-07T19:11:59.783Z,94.25
2023-04-07T19:14:26.202Z,94.31
2023-04-07T19:16:52.931Z,94.23
2023-04-07T19:19:19.435Z,94.60
2023-04-07T19:21:45.814Z,94.40
2023-04-07T19:24:12.320Z,94.49
2023-04-07T19:26:38.751Z,94.63
2023-04-07T19:29:05.157Z,94.74
2023-04-07T19:31:31.602Z,95.08
2023-04-07T19:33:59.042Z,94.97
2023-04-07T19:36:26.485Z,95.12
2023-04-07T19:38:52.964Z,95.49
2023-04-07T19:41:19.528Z,95.48
2023-04-07T19:43:45.995Z,95.49
2023-04-07T19:46:12.421Z,95.41
2023-04-07T19:48:40.002Z,95.37
2023-04-07T19:51:07.296Z,95.38
2023-04-07T19:53:34.047Z,95.52
2023-04-07T19:56:01.557Z,95.28
2023-04-07T19:58:28.374Z,95.61
2023-04-07T20:00:55.049Z,95.17
2023-04-07T20:03:21.941Z,95.29
2023-04-07T20:05:48.599Z,95.27
2023-04-07T20:08:14.960Z,95.41
2023-04-07T20:10:41.403Z,95.56
2023-04-07T20:13:09.092Z,95.49
2023-04-07T20:15:35.514Z,95.70
2023-04-07T20:18:02.009Z,95.54
2023-04-07T20:20:28.559Z,95.69
2023-04-07T20:22:55.016Z,95.54
2023-04-07T20:25:21.550Z,95.68
2023-04-07T20:27:49.981Z,95.67
2023-04-07T20:30:16.790Z,95.65
2023-04-07T20:32:43.861Z,95.52
2023-04-07T20:35:11.920Z,95.76
2023-04-07T20:37:38.476Z,95.38
2023-04-07T20:40:06.056Z,95.58
2023-04-07T20:42:32.485Z,95.52
2023-04-07T20:45:03.501Z,95.46
2023-04-07T20:47:31.366Z,95.69
2023-04-07T20:49:58.659Z,95.77
2023-04-07T20:52:27.018Z,95.92
2023-04-07T20:54:53.405Z,95.60
2023-04-07T20:57:19.742Z,95.96
2023-04-07T20:59:46.298Z,95.92
2023-04-07T21:02:12.848Z,95.71
2023-04-07T21:04:39.404Z,95.57
2023-04-07T21:07:05.863Z,95.49
2023-04-07T21:09:32.326Z,95.28
2023-04-07T21:11:58.738Z,95.30
2023-04-07T21:14:25.386Z,95.31
2023-04-07T21:16:52.166Z,95.08
2023-04-07T21:19:18.498Z,95.27
2023-04-07T21:21:44.851Z,95.26
2023-04-07T21:24:11.277Z,95.13
2023-04-07T21:26:37.738Z,94.79
2023-04-07T21:29:04.184Z,95.14
2023-04-07T21:31:30.622Z,94.86
2023-04-07T21:33:57.117Z,94.77
2023-04-07T21:36:23.719Z,94.53
2023-04-07T21:38:52.037Z,94.99
2023-04-07T21:41:18.548Z,94.71
2023-04-07T21:43:45.074Z,94.72
2023-04-07T21:46:11.543Z,94.62
2023-04-07T21:48:37.982Z,94.40
2023-04-07T21:51:04.490Z,94.62
2023-04-07T21:53:31.928Z,94.33
2023-04-07T21:55:58.369Z,94.25
2023-04-07T21:58:25.275Z,93.93
2023-04-07T22:00:52.478Z,93.80
2023-04-07T22:03:19.492Z,93.75
2023-04-07T22:05:48.748Z,93.87
2023-04-07T22:08:15.560Z,93.79
2023-04-07T22:10:42.080Z,93.81
2023-04-07T22:13:09.379Z,93.95
2023-04-07T22:15:35.813Z,94.02
2023-04-07T22:18:03.459Z,94.27
2023-04-07T22:20:29.843Z,94.18
2023-04-07T22:22:57.432Z,94.06
2023-04-07T22:25:24.555Z,94.53
2023-04-07T22:27:53.996Z,94.69
2023-04-07T22:30:20.816Z,94.66
2023-04-07T22:32:48.100Z,94.83
2023-04-07T22:35:14.801Z,94.99
2023-04-07T22:37:41.268Z,94.65
2023-04-07T22:40:08.941Z,95.00
2023-04-07T22:42:35.669Z,95.10
2023-04-07T22:45:02.099Z,95.29
2023-04-07T22:47:28.599Z,95.22
2023-04-07T22:49:55.269Z,95.34
2023-04-07T22:52:21.647Z,95.37
2023-04-07T22:54:48.116Z,95.55
2023-04-07T22:57:14.674Z,95.39
2023-04-07T22:59:41.060Z,95.61
2023-04-07T23:02:07.708Z,95.70
2023-04-07T23:04:34.218Z,95.75
2023-04-07T23:07:01.222Z,95.59
2023-04-07T23:09:27.595Z,96.09
2023-04-07T23:11:53.987Z,95.89
2023-04-07T23:14:20.613Z,96.37
2023-04-07T23:16:47.035Z,95.94
2023-04-07T23:19:15.823Z,96.12
2023-04-07T23:21:43.201Z,96.28
2023-04-07T23:24:09.699Z,96.04
2023-04-07T23:26:36.074Z,96.37
2023-04-07T23:29:02.980Z,96.08
2023-04-07T23:31:29.630Z,96.25
2023-04-07T23:33:56.159Z,96.51
2023-04-07T23:36:22.579Z,96.22
2023-04-07T23:38:49.150Z,96.16
2023-04-07T23:41:16.280Z,96.38
2023-04-07T23:43:42.921Z,96.20
2023-04-07T23:46:09.411Z,96.22
2023-04-07T23:48:36.296Z,96.22
2023-04-07T23:51:02.707Z,96.02
2023-04-07T23:53:29.028Z,95.87
2023-04-07T23:55:55.547Z,95.78
2023-04-07T23:58:22.094Z,95.68
